createdAt,value
2019-06-26T00:00:48.500Z,24.30
2019-06-26T00:03:25.122Z,24.30
2019-06-26T00:05:54.709Z,24.30
2019-06-26T00:08:30.896Z,24.30
2019-06-26T00:11:00.505Z,24.20
2019-06-26T00:13:36.609Z,24.20
2019-06-26T00:16:06.218Z,24.20
2019-06-26T00:18:48.403Z,24.20
2019-06-26T00:21:21.175Z,24.10
2019-06-26T00:23:56.248Z,24.10
2019-06-26T00:26:25.708Z,24.10
2019-06-26T00:29:01.497Z,24.00
2019-06-26T00:31:38.000Z,24.00
2019-06-26T00:34:07.667Z,23.90
2019-06-26T00:36:44.193Z,23.90
2019-06-26T00:39:13.707Z,23.90
2019-06-26T00:41:49.460Z,23.90
2019-06-26T00:44:19.064Z,23.90
2019-06-26T00:46:54.778Z,23.90
2019-06-26T00:49:30.738Z,23.90
2019-06-26T00:52:07.321Z,23.90
2019-06-26T00:54:48.121Z,23.80
2019-06-26T00:57:17.723Z,23.90
2019-06-26T00:59:53.790Z,23.90
2019-06-26T01:02:23.339Z,23.90
2019-06-26T01:05:00.569Z,23.90
2019-06-26T01:07:30.257Z,23.80
2019-06-26T01:10:05.891Z,23.70
2019-06-26T01:12:35.484Z,23.70
2019-06-26T01:15:20.248Z,23.60
2019-06-26T01:17:56.756Z,23.50
2019-06-26T01:20:33.240Z,23.20
2019-06-26T01:23:02.869Z,23.00
2019-06-26T01:25:39.056Z,22.90
2019-06-26T01:28:08.580Z,22.90
2019-06-26T01:30:44.646Z,22.60
2019-06-26T01:33:14.102Z,22.40
2019-06-26T01:35:49.645Z,22.20
2019-06-26T01:38:19.092Z,22.30
2019-06-26T01:40:55.059Z,22.00
2019-06-26T01:43:24.506Z,22.10
2019-06-26T01:46:00.825Z,21.90
2019-06-26T01:48:30.248Z,21.90
2019-06-26T01:51:06.494Z,21.90
2019-06-26T01:53:42.116Z,21.90
2019-06-26T01:56:11.705Z,21.80
2019-06-26T01:58:47.901Z,21.60
2019-06-26T02:01:17.436Z,21.70
2019-06-26T02:03:54.249Z,21.60
2019-06-26T02:06:23.925Z,21.60
2019-06-26T02:08:53.441Z,21.40
2019-06-26T02:11:29.510Z,21.20
2019-06-26T02:13:58.964Z,21.20
2019-06-26T02:16:34.960Z,21.20
2019-06-26T02:19:12.976Z,21.10
2019-06-26T02:21:49.102Z,21.10
2019-06-26T02:24:25.579Z,20.90
2019-06-26T02:27:02.041Z,20.80
2019-06-26T02:29:38.528Z,20.70
2019-06-26T02:32:15.146Z,20.70
2019-06-26T02:34:44.734Z,20.80
2019-06-26T02:37:20.751Z,20.70
2019-06-26T02:39:56.524Z,20.70
2019-06-26T02:42:25.975Z,20.60
2019-06-26T02:45:02.876Z,20.60
2019-06-26T02:47:38.789Z,20.50
2019-06-26T02:50:18.502Z,20.50
2019-06-26T02:52:47.951Z,20.40
2019-06-26T02:55:24.231Z,20.40
2019-06-26T02:57:53.838Z,20.50
2019-06-26T03:00:30.185Z,20.60
2019-06-26T03:02:59.697Z,20.60
2019-06-26T03:05:36.288Z,20.50
2019-06-26T03:08:12.176Z,20.60
2019-06-26T03:10:48.724Z,20.60
2019-06-26T03:13:24.652Z,20.60
2019-06-26T03:16:00.622Z,20.70
2019-06-26T03:18:30.169Z,20.70
2019-06-26T03:21:06.187Z,20.80
2019-06-26T03:23:35.712Z,20.80
2019-06-26T03:26:11.492Z,20.90
2019-06-26T03:28:47.187Z,20.90
2019-06-26T03:31:16.708Z,21.00
2019-06-26T03:33:46.177Z,21.10
2019-06-26T03:36:22.284Z,21.10
2019-06-26T03:38:51.747Z,21.10
2019-06-26T03:41:21.219Z,21.20
2019-06-26T03:43:57.652Z,21.30
2019-06-26T03:46:27.114Z,21.40
2019-06-26T03:49:08.669Z,21.40
2019-06-26T03:51:45.210Z,21.50
2019-06-26T03:54:14.642Z,21.50
2019-06-26T03:56:50.543Z,21.50
2019-06-26T03:59:20.076Z,21.50
2019-06-26T04:01:56.523Z,21.50
2019-06-26T04:04:26.004Z,21.50
2019-06-26T04:06:55.455Z,21.60
2019-06-26T04:09:31.593Z,21.60
2019-06-26T04:12:07.168Z,21.60
2019-06-26T04:14:36.678Z,21.70
2019-06-26T04:17:12.742Z,21.80
2019-06-26T04:19:48.485Z,21.80
2019-06-26T04:22:17.945Z,21.90
2019-06-26T04:24:53.847Z,21.90
2019-06-26T04:27:23.415Z,22.10
2019-06-26T04:29:59.956Z,22.10
2019-06-26T04:32:36.229Z,22.20
2019-06-26T04:35:14.106Z,22.20
2019-06-26T04:37:43.626Z,22.30
2019-06-26T04:40:20.552Z,22.30
2019-06-26T04:42:50.147Z,22.40
2019-06-26T04:45:26.737Z,22.40
2019-06-26T04:48:02.968Z,22.50
2019-06-26T04:50:40.680Z,22.60
2019-06-26T04:53:10.216Z,22.70
2019-06-26T04:55:39.749Z,22.70
2019-06-26T04:58:16.306Z,22.70
2019-06-26T05:00:45.768Z,22.90
2019-06-26T05:03:21.824Z,23.00
2019-06-26T05:05:57.479Z,23.10
2019-06-26T05:08:27.018Z,23.30
2019-06-26T05:11:03.235Z,23.40
2019-06-26T05:13:32.776Z,23.60
2019-06-26T05:16:15.096Z,23.80
2019-06-26T05:18:40.303Z,24.00
2019-06-26T05:21:09.811Z,24.30
2019-06-26T05:23:45.453Z,24.40
2019-06-26T05:26:14.970Z,24.50
2019-06-26T05:28:50.750Z,24.70
2019-06-26T05:31:27.385Z,24.70
2019-06-26T05:33:56.906Z,24.90
2019-06-26T05:36:33.505Z,24.90
2019-06-26T05:39:03.050Z,25.10
2019-06-26T05:41:39.192Z,25.20
2019-06-26T05:44:08.801Z,25.40
2019-06-26T05:46:44.626Z,25.50
2019-06-26T05:49:26.969Z,25.50
2019-06-26T05:51:56.431Z,25.70
2019-06-26T05:54:32.987Z,25.70
2019-06-26T05:57:02.445Z,25.90
2019-06-26T05:59:38.487Z,26.00
2019-06-26T06:02:08.981Z,26.20
2019-06-26T06:04:45.084Z,26.30
2019-06-26T06:07:14.648Z,26.30
2019-06-26T06:09:50.348Z,26.50
2019-06-26T06:12:26.218Z,26.50
2019-06-26T06:14:55.759Z,26.80
2019-06-26T06:17:32.202Z,27.10
2019-06-26T06:20:08.288Z,27.20
2019-06-26T06:22:44.821Z,27.40
2019-06-26T06:25:14.483Z,27.60
2019-06-26T06:31:30.297Z,27.80
2019-06-26T06:34:06.608Z,28.10
2019-06-26T06:36:49.799Z,28.00
2019-06-26T06:39:38.491Z,28.00
2019-06-26T06:42:20.833Z,28.10
2019-06-26T06:44:57.363Z,28.20
2019-06-26T06:47:39.756Z,28.50
2019-06-26T06:50:28.703Z,28.70
2019-06-26T06:53:10.653Z,28.80
2019-06-26T06:55:53.420Z,29.00
2019-06-26T06:58:43.235Z,29.10
2019-06-26T07:01:32.089Z,29.20
2019-06-26T07:04:21.640Z,29.30
2019-06-26T07:07:04.472Z,29.50
2019-06-26T07:09:47.142Z,29.70
2019-06-26T07:12:23.227Z,29.90
2019-06-26T07:15:06.122Z,30.20
2019-06-26T07:17:49.194Z,30.40
2019-06-26T07:20:31.603Z,30.50
2019-06-26T07:23:08.170Z,30.70
2019-06-26T07:25:57.791Z,30.70
2019-06-26T07:28:46.813Z,30.80
2019-06-26T07:31:38.420Z,31.10
2019-06-26T07:34:20.288Z,31.20
2019-06-26T07:37:03.229Z,31.30
2019-06-26T07:39:45.793Z,31.50
2019-06-26T07:42:22.308Z,31.70
2019-06-26T07:45:05.087Z,32.10
2019-06-26T07:47:47.524Z,32.20
2019-06-26T07:50:32.337Z,32.60
2019-06-26T07:53:14.081Z,32.90
2019-06-26T07:55:49.917Z,33.20
2019-06-26T07:58:26.202Z,33.30
2019-06-26T08:01:09.050Z,33.50
2019-06-26T08:03:57.998Z,33.40
2019-06-26T08:06:40.564Z,33.10
2019-06-26T08:09:23.919Z,32.70
2019-06-26T08:12:06.876Z,32.80
2019-06-26T08:14:42.975Z,33.00
2019-06-26T08:17:32.185Z,33.20
2019-06-26T08:20:16.588Z,33.20
2019-06-26T08:22:59.687Z,33.60
2019-06-26T08:25:47.635Z,34.10
2019-06-26T08:28:29.997Z,34.30
2019-06-26T08:31:18.884Z,34.60
2019-06-26T08:34:08.080Z,34.70
2019-06-26T08:36:58.676Z,34.50
2019-06-26T08:39:47.914Z,34.40
2019-06-26T08:42:36.950Z,34.40
2019-06-26T08:45:19.654Z,34.20
2019-06-26T08:48:22.788Z,34.30
2019-06-26T08:50:59.911Z,34.20
2019-06-26T08:53:44.895Z,34.20
2019-06-26T08:56:25.093Z,33.80
2019-06-26T08:59:00.804Z,33.80
2019-06-26T09:01:44.176Z,33.60
2019-06-26T09:04:26.887Z,33.70
2019-06-26T09:07:09.937Z,33.70
2019-06-26T09:09:58.267Z,33.90
2019-06-26T09:12:47.371Z,33.90
2019-06-26T09:15:17.036Z,34.10
2019-06-26T09:17:53.196Z,34.40
2019-06-26T09:20:35.937Z,34.50
2019-06-26T09:23:13.318Z,34.40
2019-06-26T09:25:42.927Z,33.80
2019-06-26T09:28:32.857Z,33.70
2019-06-26T09:31:21.648Z,33.80
2019-06-26T09:34:04.119Z,33.90
2019-06-26T09:36:47.099Z,34.00
2019-06-26T09:39:16.711Z,34.20
2019-06-26T09:41:59.067Z,34.30
2019-06-26T09:44:48.317Z,34.10
2019-06-26T09:47:31.673Z,34.10
2019-06-26T09:50:15.263Z,34.10
2019-06-26T09:52:51.270Z,34.40
2019-06-26T09:55:34.035Z,34.90
2019-06-26T09:58:23.604Z,34.70
2019-06-26T10:01:12.668Z,34.70
2019-06-26T10:04:02.054Z,34.80
2019-06-26T10:06:51.588Z,34.90
2019-06-26T10:09:34.664Z,34.90
2019-06-26T10:12:10.245Z,35.10
2019-06-26T10:14:52.538Z,35.10
2019-06-26T10:17:35.154Z,35.30
2019-06-26T10:20:18.850Z,34.90
2019-06-26T10:23:01.537Z,34.90
2019-06-26T10:25:51.260Z,35.00
2019-06-26T10:28:27.704Z,35.20
2019-06-26T10:31:10.298Z,35.30
2019-06-26T10:33:59.639Z,35.20
2019-06-26T10:36:42.401Z,35.20
2019-06-26T10:39:25.076Z,35.00
2019-06-26T10:42:10.427Z,34.90
2019-06-26T10:44:59.634Z,34.70
2019-06-26T10:47:52.009Z,35.00
2019-06-26T10:50:27.659Z,35.20
2019-06-26T10:53:09.974Z,35.40
2019-06-26T10:55:59.480Z,35.40
2019-06-26T10:58:42.397Z,35.60
2019-06-26T11:01:18.550Z,35.50
2019-06-26T11:04:08.054Z,35.20
2019-06-26T11:06:57.043Z,35.20
2019-06-26T11:09:46.765Z,35.10
2019-06-26T11:12:22.290Z,34.90
2019-06-26T11:15:04.150Z,35.20
2019-06-26T11:17:53.649Z,35.30
2019-06-26T11:20:36.766Z,35.30
2019-06-26T11:23:19.109Z,35.30
2019-06-26T11:26:01.297Z,35.30
2019-06-26T11:28:37.296Z,35.30
2019-06-26T11:31:19.632Z,35.10
2019-06-26T11:33:56.114Z,35.30
2019-06-26T11:36:44.761Z,35.30
2019-06-26T11:39:28.977Z,35.50
2019-06-26T11:42:11.988Z,35.70
2019-06-26T11:44:54.040Z,35.70
2019-06-26T11:47:40.195Z,35.50
2019-06-26T11:50:29.675Z,35.40
2019-06-26T11:53:06.182Z,35.80
2019-06-26T11:55:49.013Z,35.80
2019-06-26T11:58:38.408Z,35.60
2019-06-26T12:01:14.007Z,35.50
2019-06-26T12:03:55.990Z,35.60
2019-06-26T12:06:38.259Z,35.90
2019-06-26T12:09:28.151Z,35.70
2019-06-26T12:12:10.606Z,35.70
2019-06-26T12:14:46.406Z,35.70
2019-06-26T12:17:29.385Z,35.70
2019-06-26T12:20:18.575Z,35.80
2019-06-26T12:22:55.298Z,35.50
2019-06-26T12:25:31.163Z,35.60
2019-06-26T12:28:20.465Z,35.60
2019-06-26T12:30:56.262Z,35.60
2019-06-26T12:33:39.434Z,35.40
2019-06-26T12:36:29.398Z,35.50
2019-06-26T12:39:05.242Z,35.60
2019-06-26T12:41:54.702Z,35.70
2019-06-26T12:44:36.804Z,35.60
2019-06-26T12:47:25.718Z,35.70
2019-06-26T12:50:14.313Z,35.60
2019-06-26T12:52:56.946Z,35.40
2019-06-26T12:55:42.700Z,35.00
2019-06-26T12:58:32.147Z,35.00
2019-06-26T13:01:14.143Z,34.90
2019-06-26T13:03:56.831Z,34.80
2019-06-26T13:06:32.653Z,35.00
2019-06-26T13:09:16.619Z,35.00
2019-06-26T13:11:53.751Z,35.10
2019-06-26T13:14:36.690Z,35.40
2019-06-26T13:17:19.441Z,35.60
2019-06-26T13:20:02.385Z,35.60
2019-06-26T13:22:50.806Z,35.50
2019-06-26T13:25:33.122Z,35.30
2019-06-26T13:28:15.995Z,35.20
2019-06-26T13:31:05.285Z,35.30
2019-06-26T13:33:47.641Z,35.30
2019-06-26T13:36:30.203Z,35.40
2019-06-26T13:39:14.516Z,35.50
2019-06-26T13:41:57.183Z,35.90
2019-06-26T13:44:39.735Z,36.10
2019-06-26T13:47:29.166Z,36.20
2019-06-26T13:50:20.906Z,36.00
2019-06-26T13:53:10.508Z,36.20
2019-06-26T13:55:52.826Z,36.30
2019-06-26T13:58:42.321Z,36.30
2019-06-26T14:01:25.302Z,36.30
2019-06-26T14:04:07.358Z,36.40
2019-06-26T14:06:56.875Z,36.60
2019-06-26T14:09:39.302Z,36.50
2019-06-26T14:12:18.945Z,36.50
2019-06-26T14:14:59.281Z,36.40
2019-06-26T14:17:48.328Z,36.00
2019-06-26T14:20:31.017Z,35.80
2019-06-26T14:23:13.902Z,35.70
2019-06-26T14:26:02.629Z,35.60
2019-06-26T14:28:44.730Z,35.50
2019-06-26T14:31:20.424Z,35.60
2019-06-26T14:34:03.433Z,35.60
2019-06-26T14:36:45.350Z,35.80
2019-06-26T14:39:21.407Z,35.90
2019-06-26T14:42:03.962Z,36.10
2019-06-26T14:44:46.091Z,36.00
2019-06-26T14:47:35.801Z,36.10
2019-06-26T14:50:19.106Z,36.10
2019-06-26T14:53:02.091Z,36.20
2019-06-26T14:55:37.377Z,36.10
2019-06-26T14:58:20.245Z,36.00
2019-06-26T15:00:58.496Z,36.00
2019-06-26T15:03:41.779Z,35.90
2019-06-26T15:06:17.615Z,35.90
2019-06-26T15:09:00.253Z,35.80
2019-06-26T15:11:42.363Z,36.00
2019-06-26T15:14:18.570Z,35.90
2019-06-26T15:16:54.480Z,35.90
2019-06-26T15:19:37.195Z,35.80
2019-06-26T15:22:26.289Z,35.80
2019-06-26T15:25:09.955Z,35.80
2019-06-26T15:27:46.158Z,35.50
2019-06-26T15:30:23.156Z,35.40
2019-06-26T15:33:12.302Z,35.50
2019-06-26T15:35:55.027Z,35.50
2019-06-26T15:38:31.847Z,35.30
2019-06-26T15:41:21.923Z,35.20
2019-06-26T15:43:57.835Z,35.10
2019-06-26T15:46:40.045Z,35.10
2019-06-26T15:49:16.084Z,34.90
2019-06-26T15:52:14.145Z,34.90
2019-06-26T15:54:36.544Z,34.80
2019-06-26T15:57:19.239Z,34.70
2019-06-26T15:59:54.876Z,34.90
2019-06-26T16:02:37.945Z,34.90
2019-06-26T16:05:19.777Z,34.80
2019-06-26T16:07:57.667Z,34.60
2019-06-26T16:10:40.271Z,34.40
2019-06-26T16:13:23.102Z,34.40
2019-06-26T16:16:12.260Z,34.40
2019-06-26T16:18:59.033Z,34.20
2019-06-26T16:21:48.250Z,34.30
2019-06-26T16:24:31.208Z,34.30
2019-06-26T16:27:13.727Z,34.20
2019-06-26T16:29:49.731Z,34.10
2019-06-26T16:32:32.307Z,34.10
2019-06-26T16:35:12.151Z,34.00
2019-06-26T16:37:52.698Z,34.10
2019-06-26T16:40:29.222Z,34.00
2019-06-26T16:43:12.057Z,34.10
2019-06-26T16:46:01.290Z,33.90
2019-06-26T16:48:36.887Z,33.90
2019-06-26T16:51:20.119Z,33.80
2019-06-26T16:54:03.250Z,33.90
2019-06-26T16:56:45.332Z,33.80
2019-06-26T16:59:21.741Z,33.70
2019-06-26T17:02:07.071Z,33.50
2019-06-26T17:04:55.509Z,33.30
2019-06-26T17:07:37.468Z,33.20
2019-06-26T17:10:26.444Z,33.30
2019-06-26T17:13:09.388Z,33.20
2019-06-26T17:15:45.438Z,33.20
2019-06-26T17:18:21.352Z,33.20
2019-06-26T17:21:03.433Z,33.20
2019-06-26T17:23:39.756Z,33.00
2019-06-26T17:26:22.312Z,33.10
2019-06-26T17:29:11.771Z,33.10
2019-06-26T17:32:00.711Z,33.00
2019-06-26T17:34:50.421Z,32.80
2019-06-26T17:37:39.403Z,32.70
2019-06-26T17:40:28.442Z,32.60
2019-06-26T17:43:12.629Z,32.50
2019-06-26T17:45:49.681Z,32.40
2019-06-26T17:48:32.446Z,32.30
2019-06-26T17:51:22.129Z,32.20
2019-06-26T17:54:11.932Z,32.10
2019-06-26T17:56:47.604Z,32.10
2019-06-26T17:59:30.103Z,32.00
2019-06-26T18:02:19.081Z,32.00
2019-06-26T18:05:01.480Z,32.00
2019-06-26T18:07:37.655Z,31.90
2019-06-26T18:10:20.321Z,31.90
2019-06-26T18:13:02.087Z,31.90
2019-06-26T18:15:44.427Z,31.80
2019-06-26T18:18:33.518Z,31.80
2019-06-26T18:21:23.643Z,31.70
2019-06-26T18:24:06.148Z,31.60
2019-06-26T18:26:42.648Z,31.50
2019-06-26T18:29:25.115Z,31.40
2019-06-26T18:32:07.662Z,31.30
2019-06-26T18:34:56.736Z,30.90
2019-06-26T18:37:38.465Z,30.80
2019-06-26T18:40:16.887Z,30.70
2019-06-26T18:42:59.218Z,30.60
2019-06-26T18:45:41.111Z,30.50
2019-06-26T18:48:30.273Z,30.50
2019-06-26T18:51:12.974Z,30.30
2019-06-26T18:53:53.522Z,30.10
2019-06-26T18:56:33.136Z,29.90
2019-06-26T18:59:22.457Z,29.80
2019-06-26T19:02:22.852Z,29.70
2019-06-26T19:05:03.220Z,29.40
2019-06-26T19:07:46.103Z,29.40
2019-06-26T19:10:29.076Z,29.20
2019-06-26T19:13:05.846Z,29.10
2019-06-26T19:15:55.564Z,29.00
2019-06-26T19:18:44.931Z,28.80
2019-06-26T19:21:30.136Z,28.60
2019-06-26T19:24:10.399Z,28.60
2019-06-26T19:26:51.023Z,28.40
2019-06-26T19:29:27.440Z,28.30
2019-06-26T19:32:09.488Z,28.00
2019-06-26T19:34:45.381Z,27.80
2019-06-26T19:37:28.905Z,27.80
2019-06-26T19:40:08.277Z,27.70
2019-06-26T19:42:48.505Z,27.50
2019-06-26T19:45:25.439Z,27.30
2019-06-26T19:48:09.203Z,27.00
2019-06-26T19:50:58.647Z,26.90
2019-06-26T19:53:41.519Z,26.60
2019-06-26T19:56:20.029Z,26.60
2019-06-26T19:59:01.558Z,26.50
2019-06-26T20:01:38.098Z,26.40
2019-06-26T20:04:25.031Z,26.30
2019-06-26T20:07:15.825Z,26.20
2019-06-26T20:10:01.931Z,26.10
2019-06-26T20:13:00.505Z,26.00
2019-06-26T20:15:40.191Z,25.90
2019-06-26T20:18:23.017Z,25.80
2019-06-26T20:21:07.342Z,25.80
2019-06-26T20:24:10.369Z,25.70
2019-06-26T20:26:55.671Z,25.60
2019-06-26T20:29:44.862Z,25.50
2019-06-26T20:32:38.262Z,25.50
2019-06-26T20:35:27.807Z,25.50
2019-06-26T20:38:17.021Z,25.30
2019-06-26T20:40:59.249Z,25.10
2019-06-26T20:43:51.361Z,25.10
2019-06-26T20:46:33.896Z,24.90
2019-06-26T20:49:16.689Z,25.00
2019-06-26T20:52:06.256Z,24.90
2019-06-26T20:55:00.575Z,24.90
2019-06-26T21:00:40.475Z,24.70
2019-06-26T21:03:23.519Z,24.70
2019-06-26T21:06:16.706Z,24.60
2019-06-26T21:09:05.357Z,24.50
2019-06-26T21:11:47.909Z,24.50
2019-06-26T21:14:29.778Z,24.40
2019-06-26T21:17:18.712Z,24.30
2019-06-26T21:20:01.905Z,24.30
2019-06-26T21:22:47.362Z,24.20
2019-06-26T21:25:38.527Z,24.30
2019-06-26T21:28:23.204Z,24.30
2019-06-26T21:31:16.933Z,24.10
2019-06-26T21:33:58.265Z,24.00
2019-06-26T21:36:34.067Z,24.00
2019-06-26T21:39:16.732Z,23.80
2019-06-26T21:41:52.441Z,23.80
2019-06-26T21:44:34.247Z,23.80
2019-06-26T21:47:12.177Z,23.70
2019-06-26T21:49:54.714Z,23.70
2019-06-26T21:52:43.655Z,23.70
2019-06-26T21:55:34.255Z,23.50
2019-06-26T21:58:04.193Z,23.70
2019-06-26T22:00:53.425Z,23.70
2019-06-26T22:03:37.177Z,23.60
2019-06-26T22:06:16.210Z,23.30
2019-06-26T22:08:59.276Z,23.40
2019-06-26T22:11:48.576Z,23.30
2019-06-26T22:14:37.710Z,23.30
2019-06-26T22:17:28.295Z,23.20
2019-06-26T22:20:21.664Z,23.10
2019-06-26T22:23:03.295Z,23.20
2019-06-26T22:25:50.465Z,23.00
2019-06-26T22:28:27.026Z,22.90
2019-06-26T22:31:12.148Z,22.90
2019-06-26T22:33:50.586Z,22.80
2019-06-26T22:36:33.359Z,22.90
2019-06-26T22:39:27.563Z,22.70
2019-06-26T22:42:16.765Z,22.70
2019-06-26T22:44:59.389Z,22.50
2019-06-26T22:47:42.824Z,22.50
2019-06-26T22:50:32.062Z,22.40
2019-06-26T22:53:14.600Z,22.40
2019-06-26T22:56:06.929Z,22.20
2019-06-26T22:58:45.347Z,22.20
2019-06-26T23:01:34.516Z,22.10
2019-06-26T23:04:16.934Z,22.10
2019-06-26T23:06:59.615Z,22.10
2019-06-26T23:09:42.768Z,22.00
2019-06-26T23:12:26.572Z,21.90
2019-06-26T23:15:09.646Z,21.90
2019-06-26T23:17:59.000Z,21.70
2019-06-26T23:20:41.120Z,21.60
2019-06-26T23:23:19.372Z,21.50
2019-06-26T23:25:59.852Z,21.60
2019-06-26T23:28:42.615Z,21.50
2019-06-26T23:31:34.950Z,21.50
2019-06-26T23:34:17.198Z,21.30
2019-06-26T23:37:07.358Z,21.30
2019-06-26T23:39:54.116Z,21.10
2019-06-26T23:42:43.974Z,21.10
2019-06-26T23:45:33.824Z,21.00
2019-06-26T23:48:24.017Z,21.00
2019-06-26T23:51:00.337Z,20.90
2019-06-26T23:53:42.794Z,20.90
2019-06-26T23:56:40.500Z,20.80
2019-06-26T23:59:11.447Z,20.80
